• Join FlightAware (Why Join?)
  • Login
  • US Flag 
02:56PM EDT


 

Airport Tracker/Info


-or-


 

Live Flight TrackerFlight Track Log ✈ SWA3932 ✈ 15-May-2013 ✈ KHOU - KLAS

Flight Track Log - Related Links

Times and Time Zones

All times are in EDT time to prevent confusion due to time zone crossing. See the SWA3932 flight status page for this flight to view local times or setup timezone preferences in your user account.

Time Position Orientation Groundspeed Altitude Reporting Facility
EDT Latitude Longitude Course Direction KTS MPH feet Rate Location/Type
07:08AM 29.6353 -95.2650 339° North 142 163 600  Level Houston Center
07:09AM 29.6494 -95.2369 60° Northeast 223 257 1,900 1,800 Climbing Houston Center
07:09AM 29.6658 -95.2372 359° North 222 255 2,600 2,640 Climbing Houston Center
07:10AM 29.7044 -95.2422 354° North 245 282 4,100 2,340 Climbing Houston Center
07:10AM 29.7317 -95.2569 335° Northwest 250 288 5,000 3,000 Climbing Houston Center
07:11AM 29.7731 -95.2772 337° Northwest 279 321 7,200 3,600 Climbing Houston Center
07:11AM 29.8036 -95.2903 340° North 275 316 8,700 2,700 Climbing Houston Center
07:12AM 29.8792 -95.3286 336° Northwest 290 334 11,500 2,880 Climbing Houston Center
07:13AM 29.9625 -95.3703 337° Northwest 316 364 14,600 2,940 Climbing Houston Center
07:14AM 30.2764 -95.5413 339° North  Level FlightAware Approximate
07:14AM 30.0497 -95.4125 337° Northwest 334 384 17,500  Level Houston Center
07:15AM 30.1572 -95.4653 337° Northwest 349 402 20,800 2,700 Climbing Houston Center
07:16AM 30.2489 -95.5117 336° Northwest 357 411 23,000 2,160 Climbing Houston Center
07:17AM 30.3461 -95.5600 337° Northwest 378 435 25,200 1,680 Climbing Houston Center
07:18AM 30.4469 -95.6089 337° Northwest 390 449 26,500 1,080 Climbing Houston Center
07:19AM 30.5569 -95.6633 337° Northwest 425 489 27,500 1,140 Climbing Houston Center
07:20AM 30.6719 -95.7258 335° Northwest 450 518 28,900 1,320 Climbing Houston Center
07:21AM 30.7853 -95.7856 336° Northwest 461 531 30,200 1,500 Climbing Houston Center
07:22AM 30.9042 -95.8486 336° Northwest 464 534 32,000 1,860 Climbing Houston Center
07:23AM 31.0206 -95.9128 335° Northwest 460 529 34,000 1,860 Climbing Houston Center
07:24AM 31.1342 -95.9728 336° Northwest 448 516 35,800 1,620 Climbing Houston Center
07:25AM 31.1908 -95.9928 343° North 445 512 36,400 1,260 Climbing Fort Worth Center
07:26AM 31.3061 -96.0372 342° North 437 503 37,600 780 Climbing Fort Worth Center
07:27AM 31.4256 -96.0842 341° North 447 514 38,000 180 Climbing Fort Worth Center
07:28AM 31.5428 -96.1286 342° North 447 514 38,000  Level Fort Worth Center
07:29AM 31.6603 -96.1758 341° North 447 514 38,000  Level Fort Worth Center
07:30AM 31.7733 -96.2208 341° North 447 514 38,000  Level Fort Worth Center
07:31AM 31.8928 -96.2658 342° North 447 514 38,000  Level Fort Worth Center
07:32AM 32.0164 -96.3181 340° North 440 506 38,000  Level Fort Worth Center
07:33AM 32.1317 -96.3633 342° North 435 501 38,000  Level Fort Worth Center
07:34AM 32.2325 -96.4333 330° Northwest 423 487 38,000  Level Fort Worth Center
07:35AM 32.3042 -96.5186 315° West 409 471 38,000  Level Fort Worth Center
07:36AM 32.3967 -96.6211 317° Northwest 414 476 38,000  Level Fort Worth Center
07:37AM 32.4722 -96.7067 316° Northwest 414 476 38,000  Level Fort Worth Center
07:38AM 32.5669 -96.8144 316° Northwest 414 476 38,000  Level Fort Worth Center
07:39AM 32.6486 -96.9053 317° Northwest 404 465 38,000  Level Fort Worth Center
07:40AM 32.7325 -97.0011 316° Northwest 409 471 38,000  Level Fort Worth Center
07:41AM 32.8164 -97.0944 317° Northwest 404 465 38,000  Level Fort Worth Center
07:42AM 32.9000 -97.1933 315° West 410 472 38,000  Level Fort Worth Center
07:43AM 32.9794 -97.2897 315° West 410 472 38,000  Level Fort Worth Center
07:44AM 33.0589 -97.3936 312° West 416 479 38,000  Level Fort Worth Center
07:45AM 33.1403 -97.4953 314° West 422 486 38,000  Level Fort Worth Center
07:46AM 33.2172 -97.5972 312° West 417 480 38,000  Level Fort Worth Center
07:47AM 33.2819 -97.6967 308° West 417 480 38,000  Level Fort Worth Center
07:48AM 33.3147 -97.8311 286° West 383 441 38,000  Level Fort Worth Center
07:49AM 33.3394 -97.9456 285° West 390 449 38,000  Level Fort Worth Center
07:50AM 33.3700 -98.0825 285° West 395 455 38,000  Level Fort Worth Center
07:51AM 33.3964 -98.2097 284° West 395 455 38,000  Level Fort Worth Center
07:52AM 33.4228 -98.3269 285° West 395 455 38,000  Level Fort Worth Center
07:53AM 33.4511 -98.4567 285° West 395 455 38,000  Level Fort Worth Center
07:54AM 33.4769 -98.5814 284° West 395 455 38,000  Level Fort Worth Center
07:55AM 33.5050 -98.7139 284° West 395 455 38,000  Level Fort Worth Center
07:56AM 33.5328 -98.8464 284° West 401 461 38,000  Level Fort Worth Center
07:57AM 33.5561 -98.9789 282° West 401 461 38,000  Level Fort Worth Center
07:58AM 33.5878 -99.1092 286° West 408 470 38,000  Level Fort Worth Center
07:59AM 33.6153 -99.2392 284° West 408 470 38,000  Level Fort Worth Center
08:00AM 33.6403 -99.3769 282° West 415 478 38,000  Level Fort Worth Center
08:01AM 33.6675 -99.5100 284° West 415 478 38,000  Level Fort Worth Center
08:02AM 33.6964 -99.6503 284° West 415 478 38,000  Level Fort Worth Center
08:03AM 33.7228 -99.7908 283° West 421 484 38,000  Level Fort Worth Center
08:04AM 33.7497 -99.9167 284° West 427 491 38,000  Level Fort Worth Center
08:05AM 33.7836 -100.0850 284° West 436 502 38,000  Level Fort Worth Center
08:06AM 33.8100 -100.2233 283° West 431 496 38,000  Level Fort Worth Center
08:07AM 33.8339 -100.3592 282° West 431 496 38,000  Level Fort Worth Center
08:08AM 33.8619 -100.5000 284° West 431 496 38,000  Level Fort Worth Center
08:09AM 33.8897 -100.6361 284° West 431 496 38,000  Level Fort Worth Center
08:10AM 33.9153 -100.7772 282° West 431 496 38,000  Level Fort Worth Center
08:11AM 33.9428 -100.9136 284° West 431 496 38,000  Level Fort Worth Center
08:12AM 33.9642 -101.0394 282° West 426 490 38,000  Level Fort Worth Center
08:13AM 33.9953 -101.1936 284° West 432 497 38,000  Level Fort Worth Center
08:14AM 34.0164 -101.3197 281° West 432 497 38,000  Level Fort Worth Center
08:15AM 34.0450 -101.4689 283° West 420 483 38,000  Level Fort Worth Center
08:16AM 34.0678 -101.5981 282° West 420 483 38,000  Level Fort Worth Center
08:17AM 34.0942 -101.7447 282° West 426 490 38,000  Level Fort Worth Center
08:18AM 34.1183 -101.8864 282° West 420 483 38,000  Level Fort Worth Center
08:19AM 34.1408 -102.0156 282° West 426 490 38,000  Level Fort Worth Center
08:20AM 34.1692 -102.1689 283° West 422 486 38,000  Level Albuquerque Center
08:21AM 34.1953 -102.3097 283° West 426 490 38,000  Level Albuquerque Center
08:22AM 34.2181 -102.4442 282° West 429 494 38,000  Level Albuquerque Center
08:23AM 34.2422 -102.5839 282° West 427 491 38,000  Level Albuquerque Center
08:24AM 34.2675 -102.7275 282° West 431 496 38,000  Level Albuquerque Center
08:25AM 34.2925 -102.8717 282° West 436 502 38,000  Level Albuquerque Center
08:26AM 34.3211 -103.0347 282° West 435 501 38,000  Level Albuquerque Center
08:27AM 34.3450 -103.1803 281° West 436 502 38,000  Level Albuquerque Center
08:28AM 34.3697 -103.3258 282° West 437 503 38,000  Level Albuquerque Center
08:29AM 34.3939 -103.4714 281° West 437 503 38,000  Level Albuquerque Center
08:30AM 34.4183 -103.6181 281° West 438 504 38,000  Level Albuquerque Center
08:31AM 34.4411 -103.7650 281° West 439 505 38,000  Level Albuquerque Center
08:32AM 34.4644 -103.9108 281° West 438 504 38,000  Level Albuquerque Center
08:33AM 34.4883 -104.0569 281° West 437 503 38,000  Level Albuquerque Center
08:34AM 34.5117 -104.2042 281° West 438 504 38,000  Level Albuquerque Center
08:35AM 34.5350 -104.3522 281° West 440 506 38,000  Level Albuquerque Center
08:36AM 34.5589 -104.4975 281° West 436 502 38,000  Level Albuquerque Center
08:37AM 34.5778 -104.6192 281° West 435 501 38,000  Level Albuquerque Center
08:38AM 34.6003 -104.7658 281° West 435 501 38,000  Level Albuquerque Center
08:39AM 34.6233 -104.9111 281° West 434 499 38,000  Level Albuquerque Center
08:40AM 34.6447 -105.0581 280° West 435 501 38,000  Level Albuquerque Center
08:41AM 34.6678 -105.2033 281° West 434 499 38,000  Level Albuquerque Center
08:42AM 34.6897 -105.3472 281° West 431 496 38,000  Level Albuquerque Center
08:43AM 34.7111 -105.4914 280° West 430 495 38,000  Level Albuquerque Center
08:44AM 34.7322 -105.6344 280° West 428 493 38,000  Level Albuquerque Center
08:45AM 34.7536 -105.7794 280° West 431 496 38,000  Level Albuquerque Center
08:46AM 34.7742 -105.9250 280° West 433 498 38,000  Level Albuquerque Center
08:47AM 34.7953 -106.0714 280° West 434 499 38,000  Level Albuquerque Center
08:48AM 34.8167 -106.2183 280° West 437 503 38,000  Level Albuquerque Center
08:49AM 34.8350 -106.3525 279° West 434 499 38,000  Level Albuquerque Center
08:50AM 34.8544 -106.4975 279° West 433 498 38,000  Level Albuquerque Center
08:51AM 34.8772 -106.6736 279° West 442 509 38,000  Level Albuquerque Center
08:52AM 34.8967 -106.8108 280° West 434 499 38,000  Level Albuquerque Center
08:53AM 34.9172 -106.9464 281° West 427 491 38,000  Level Albuquerque Center
08:54AM 34.9400 -107.1072 280° West 431 496 38,000  Level Albuquerque Center
08:55AM 34.9547 -107.2308 278° West 436 502 38,000  Level Albuquerque Center
08:56AM 34.9731 -107.3767 279° West 436 502 38,000  Level Albuquerque Center
08:57AM 34.9925 -107.5203 279° West 431 496 38,000  Level Albuquerque Center
08:58AM 35.0097 -107.6631 278° West 427 491 38,000  Level Albuquerque Center
08:59AM 35.0289 -107.8050 279° West 424 488 38,000  Level Albuquerque Center
09:00AM 35.0492 -107.9569 279° West 426 490 38,000  Level Albuquerque Center
09:01AM 35.0683 -108.1153 278° West 423 487 38,000  Level Albuquerque Center
09:02AM 35.0858 -108.2525 279° West 425 489 38,000  Level Albuquerque Center
09:03AM 35.1022 -108.3883 278° West 423 487 38,000  Level Albuquerque Center
09:04AM 35.1228 -108.5469 279° West 422 486 38,000  Level Albuquerque Center
09:05AM 35.1394 -108.6817 279° West 420 483 38,000  Level Albuquerque Center
09:06AM 35.1561 -108.8178 279° West 420 483 38,000  Level Albuquerque Center
09:07AM 35.1719 -108.9533 278° West 420 483 38,000  Level Albuquerque Center
09:08AM 35.1908 -109.1089 278° West 415 478 38,000  Level Albuquerque Center
09:09AM 35.2064 -109.2442 278° West 417 480 38,000  Level Albuquerque Center
09:10AM 35.2225 -109.3781 278° West 416 479 38,000  Level Albuquerque Center
09:11AM 35.2394 -109.5328 278° West 411 473 38,000  Level Albuquerque Center
09:12AM 35.2542 -109.6661 278° West 411 473 38,000  Level Albuquerque Center
09:13AM 35.2686 -109.8042 277° West 420 483 38,000  Level Albuquerque Center
09:15AM 35.2892 -109.9614 279° West 421 484 38,000  Level Albuquerque Center
09:16AM 35.3014 -110.0947 276° West 414 476 38,000  Level Albuquerque Center
09:17AM 35.3144 -110.2267 277° West 410 472 38,000  Level Albuquerque Center
09:18AM 35.3303 -110.3814 277° West 411 473 38,000  Level Albuquerque Center
09:19AM 35.3439 -110.5156 277° West 411 473 38,000  Level Albuquerque Center
09:20AM 35.3583 -110.6506 278° West 416 479 38,000  Level Albuquerque Center
09:21AM 35.3728 -110.8050 277° West 411 473 38,000  Level Albuquerque Center
09:22AM 35.3886 -110.9397 278° West 414 476 38,000  Level Albuquerque Center
09:23AM 35.4006 -111.0733 276° West 413 475 38,000  Level Albuquerque Center
09:24AM 35.4172 -111.2303 277° West 415 478 38,000  Level Albuquerque Center
09:25AM 35.4306 -111.3628 277° West 412 474 38,000 -960 Level Albuquerque Center
09:26AM 35.4419 -111.4883 276° West 417 480 36,100 -2,280 Descending Albuquerque Center
09:27AM 35.4550 -111.6247 277° West 410 472 33,400 -2,940 Descending Albuquerque Center
09:28AM 35.4725 -111.7950 277° West 418 481 30,200 -1,680 Descending Albuquerque Center
09:29AM 35.4844 -111.9367 276° West 420 483 30,000 -120 Descending Albuquerque Center
09:30AM 35.4978 -112.0750 277° West 416 479 30,000  Level Albuquerque Center
09:30AM 35.5081 -112.1878 276° West 416 479 30,000  Level Los Angeles Center
09:31AM 35.5108 -112.2153 277° West 416 479 30,000  Level Albuquerque Center
09:32AM 35.5233 -112.3561 276° West 418 481 30,000  Level Albuquerque Center
09:33AM 35.5336 -112.4669 277° West 415 478 30,000  Level Los Angeles Center
09:34AM 35.5456 -112.6075 276° West 416 479 30,000  Level Los Angeles Center
09:35AM 35.5597 -112.7517 277° West 415 478 30,000  Level Los Angeles Center
09:36AM 35.5742 -112.9219 276° West 416 479 30,000  Level Los Angeles Center
09:37AM 35.5864 -113.0819 275° West 416 479 30,000  Level Los Angeles Center
09:38AM 35.5983 -113.2258 276° West 422 486 30,000 -780 Level Los Angeles Center
09:39AM 35.6097 -113.3583 276° West 413 475 28,500 -1,800 Descending Los Angeles Center
09:40AM 35.6206 -113.4894 276° West 393 452 26,400 -2,100 Descending Los Angeles Center
09:41AM 35.6333 -113.6133 277° West 373 429 24,300 -2,040 Descending Los Angeles Center
09:42AM 35.6514 -113.7339 280° West 362 417 22,300 -2,160 Descending Los Angeles Center
09:43AM 35.6708 -113.8750 280° West 351 404 19,900 -2,100 Descending Los Angeles Center
09:44AM 35.6881 -113.9881 281° West 340 391 18,000 -1,860 Descending Los Angeles Center
09:45AM 35.7025 -114.0939 280° West 320 368 16,100 -1,860 Descending Los Angeles Center
09:45AM 35.7058 -114.1256 277° West 320 368 15,600 -1,980 Descending Los Angeles Center
09:46AM 35.7181 -114.2108 280° West 318 366 14,100 -2,100 Descending Los Angeles Center
09:47AM 35.7308 -114.2739 284° West 322 371 12,900 -1,860 Descending Los Angeles Center
09:47AM 35.7325 -114.3178 273° West 317 365 12,200 -900 Descending Los Angeles Center
09:48AM 35.7636 -114.3717 305° West 325 374 12,000 -240 Descending Los Angeles Center
09:48AM 35.7892 -114.4014 317° Northwest 323 372 12,000  Level Los Angeles Center
09:49AM 35.8253 -114.4436 317° Northwest 308 354 12,000  Level Los Angeles Center
09:49AM 35.8478 -114.4703 316° Northwest 294 338 12,000 -300 Level Los Angeles Center
09:50AM 35.8889 -114.5153 318° Northwest 288 331 11,700 -840 Descending Los Angeles Center
09:50AM 35.9064 -114.5372 315° West 287 330 11,200 -1,440 Descending Los Angeles Center
09:51AM 35.9506 -114.5875 317° Northwest 286 329 10,100 -1,380 Descending Los Angeles Center
09:51AM 35.9639 -114.6025 318° Northwest 282 325 9,800 -1,500 Descending Los Angeles Center
09:52AM 35.9858 -114.6686 292° West 273 314 8,600 -1,860 Descending Los Angeles Center
09:52AM 35.9964 -114.7058 289° West 266 306 7,900 -1,560 Descending Los Angeles Center
09:53AM 36.0114 -114.7453 295° West 268 308 7,200 -1,380 Descending Los Angeles Center
09:53AM 36.0236 -114.7911 288° West 265 305 6,500 -720 Descending Los Angeles Center
09:54AM 36.0367 -114.8300 293° West 263 303 6,500 -240 Level Los Angeles Center
09:54AM 36.0481 -114.8681 290° West 256 295 6,300 -480 Descending Los Angeles Center
09:55AM 36.0575 -114.8950 293° West 219 252 6,100 -1,080 Descending Los Angeles Center
09:55AM 36.0683 -114.9325 290° West 229 264 5,200 -1,500 Descending Los Angeles Center
09:56AM 36.0731 -114.9564 284° West 190 219 4,600 -1,140 Descending Los Angeles Center
09:56AM 36.0753 -114.9911 275° West 197 227 4,100 -900 Descending Los Angeles Center
09:57AM 36.0744 -115.0117 267° West 175 201 3,800 -900 Descending Los Angeles Center
09:57AM 36.0739 -115.0486 269° West 179 206 3,200 -720 Descending Los Angeles Center
09:58AM 36.0733 -115.0997 269° West 165 190 2,500 -600 Descending Los Angeles Center
09:59AM 36.0739 -115.1508 271° West 155 178 2,000 -540 Descending Los Angeles Center
10:01AM 36.0667 -115.1500 270° West  Level FlightAware Approximate